sensor_id;sensor_type;location;lat;lon;timestamp;P1;durP1;ratioP1;P2;durP2;ratioP2
2884;SDS011;54691;48.262;11.586;2022-10-16T00:05:45;3.37;;;1.50;;
2884;SDS011;54691;48.262;11.586;2022-10-16T00:12:48;5.33;;;1.60;;
2884;SDS011;54691;48.262;11.586;2022-10-16T00:19:41;8.08;;;1.65;;
2884;SDS011;54691;48.262;11.586;2022-10-16T00:26:38;7.67;;;1.52;;
2884;SDS011;54691;48.262;11.586;2022-10-16T00:33:36;3.58;;;1.40;;
2884;SDS011;54691;48.262;11.586;2022-10-16T00:40:35;5.20;;;1.95;;
2884;SDS011;54691;48.262;11.586;2022-10-16T00:47:34;7.00;;;1.52;;
2884;SDS011;54691;48.262;11.586;2022-10-16T00:54:31;4.37;;;2.25;;
2884;SDS011;54691;48.262;11.586;2022-10-16T01:01:28;2.92;;;1.40;;
2884;SDS011;54691;48.262;11.586;2022-10-16T01:08:31;5.30;;;1.30;;
2884;SDS011;54691;48.262;11.586;2022-10-16T01:15:44;6.33;;;2.00;;
2884;SDS011;54691;48.262;11.586;2022-10-16T01:19:25;3.40;;;1.50;;
2884;SDS011;54691;48.262;11.586;2022-10-16T01:26:20;5.62;;;1.50;;
2884;SDS011;54691;48.262;11.586;2022-10-16T01:33:40;4.00;;;1.50;;
2884;SDS011;54691;48.262;11.586;2022-10-16T01:37:11;5.57;;;1.97;;
2884;SDS011;54691;48.262;11.586;2022-10-16T01:44:12;3.37;;;1.45;;
2884;SDS011;54691;48.262;11.586;2022-10-16T01:51:10;1.90;;;1.30;;
2884;SDS011;54691;48.262;11.586;2022-10-16T01:58:08;2.20;;;1.32;;
2884;SDS011;54691;48.262;11.586;2022-10-16T02:08:48;4.10;;;1.10;;
2884;SDS011;54691;48.262;11.586;2022-10-16T02:15:45;2.85;;;1.20;;
2884;SDS011;54691;48.262;11.586;2022-10-16T02:22:43;8.20;;;1.77;;
2884;SDS011;54691;48.262;11.586;2022-10-16T02:29:43;2.22;;;1.10;;
2884;SDS011;54691;48.262;11.586;2022-10-16T02:36:43;3.52;;;1.82;;
2884;SDS011;54691;48.262;11.586;2022-10-16T02:43:41;2.27;;;1.02;;
2884;SDS011;54691;48.262;11.586;2022-10-16T02:50:39;2.40;;;1.30;;
2884;SDS011;54691;48.262;11.586;2022-10-16T02:57:36;2.17;;;1.15;;
2884;SDS011;54691;48.262;11.586;2022-10-16T03:04:34;5.17;;;1.40;;
2884;SDS011;54691;48.262;11.586;2022-10-16T03:11:31;6.12;;;1.80;;
2884;SDS011;54691;48.262;11.586;2022-10-16T03:18:28;5.55;;;1.40;;
2884;SDS011;54691;48.262;11.586;2022-10-16T03:25:25;1.98;;;1.07;;
2884;SDS011;54691;48.262;11.586;2022-10-16T03:32:22;2.60;;;1.30;;
2884;SDS011;54691;48.262;11.586;2022-10-16T03:39:20;5.17;;;1.20;;
2884;SDS011;54691;48.262;11.586;2022-10-16T03:46:17;7.28;;;1.35;;
2884;SDS011;54691;48.262;11.586;2022-10-16T03:53:14;5.95;;;1.32;;
2884;SDS011;54691;48.262;11.586;2022-10-16T04:00:12;6.00;;;1.17;;
2884;SDS011;54691;48.262;11.586;2022-10-16T04:07:09;5.42;;;1.20;;
2884;SDS011;54691;48.262;11.586;2022-10-16T04:14:06;4.87;;;1.25;;
2884;SDS011;54691;48.262;11.586;2022-10-16T04:21:03;1.55;;;1.10;;
2884;SDS011;54691;48.262;11.586;2022-10-16T04:28:00;4.80;;;1.50;;
2884;SDS011;54691;48.262;11.586;2022-10-16T04:34:57;2.05;;;1.30;;
2884;SDS011;54691;48.262;11.586;2022-10-16T04:41:54;1.45;;;0.80;;
2884;SDS011;54691;48.262;11.586;2022-10-16T04:48:51;5.83;;;1.60;;
2884;SDS011;54691;48.262;11.586;2022-10-16T04:55:51;5.42;;;1.27;;
2884;SDS011;54691;48.262;11.586;2022-10-16T05:02:49;1.85;;;1.10;;
2884;SDS011;54691;48.262;11.586;2022-10-16T05:09:46;2.45;;;1.20;;
2884;SDS011;54691;48.262;11.586;2022-10-16T05:16:43;5.22;;;1.00;;
2884;SDS011;54691;48.262;11.586;2022-10-16T05:23:40;5.10;;;1.20;;
2884;SDS011;54691;48.262;11.586;2022-10-16T05:30:38;2.77;;;1.27;;
2884;SDS011;54691;48.262;11.586;2022-10-16T05:37:35;2.45;;;1.20;;
2884;SDS011;54691;48.262;11.586;2022-10-16T05:44:32;5.33;;;2.10;;
2884;SDS011;54691;48.262;11.586;2022-10-16T05:51:29;4.95;;;1.60;;
2884;SDS011;54691;48.262;11.586;2022-10-16T05:58:30;1.90;;;1.42;;
2884;SDS011;54691;48.262;11.586;2022-10-16T06:05:28;4.30;;;1.07;;
2884;SDS011;54691;48.262;11.586;2022-10-16T06:12:25;3.37;;;1.47;;
2884;SDS011;54691;48.262;11.586;2022-10-16T06:19:23;5.30;;;1.67;;
2884;SDS011;54691;48.262;11.586;2022-10-16T06:26:21;8.23;;;2.05;;
2884;SDS011;54691;48.262;11.586;2022-10-16T06:33:18;3.72;;;1.90;;
2884;SDS011;54691;48.262;11.586;2022-10-16T06:40:15;10.58;;;3.27;;
2884;SDS011;54691;48.262;11.586;2022-10-16T06:47:14;4.65;;;2.10;;
2884;SDS011;54691;48.262;11.586;2022-10-16T06:54:11;8.40;;;2.08;;
2884;SDS011;54691;48.262;11.586;2022-10-16T07:01:08;6.62;;;2.08;;
2884;SDS011;54691;48.262;11.586;2022-10-16T07:08:05;5.20;;;2.15;;
2884;SDS011;54691;48.262;11.586;2022-10-16T07:15:02;3.25;;;1.57;;
2884;SDS011;54691;48.262;11.586;2022-10-16T07:22:00;8.73;;;1.70;;
2884;SDS011;54691;48.262;11.586;2022-10-16T07:28:57;4.22;;;2.15;;
2884;SDS011;54691;48.262;11.586;2022-10-16T07:35:54;3.15;;;1.55;;
2884;SDS011;54691;48.262;11.586;2022-10-16T07:42:51;2.27;;;1.25;;
2884;SDS011;54691;48.262;11.586;2022-10-16T07:49:49;1.70;;;1.27;;
2884;SDS011;54691;48.262;11.586;2022-10-16T07:56:46;3.55;;;1.30;;
2884;SDS011;54691;48.262;11.586;2022-10-16T08:03:44;1.80;;;1.07;;
2884;SDS011;54691;48.262;11.586;2022-10-16T08:10:41;5.75;;;2.02;;
2884;SDS011;54691;48.262;11.586;2022-10-16T08:17:38;1.67;;;1.27;;
2884;SDS011;54691;48.262;11.586;2022-10-16T08:24:35;2.02;;;1.25;;
2884;SDS011;54691;48.262;11.586;2022-10-16T08:31:33;3.20;;;1.40;;
2884;SDS011;54691;48.262;11.586;2022-10-16T08:38:30;3.45;;;1.30;;
2884;SDS011;54691;48.262;11.586;2022-10-16T08:49:08;1.97;;;1.43;;
2884;SDS011;54691;48.262;11.586;2022-10-16T08:56:07;2.65;;;1.55;;
2884;SDS011;54691;48.262;11.586;2022-10-16T09:03:13;1.37;;;0.98;;
2884;SDS011;54691;48.262;11.586;2022-10-16T09:10:10;1.55;;;1.10;;
2884;SDS011;54691;48.262;11.586;2022-10-16T09:17:30;2.25;;;1.20;;
2884;SDS011;54691;48.262;11.586;2022-10-16T09:24:16;5.12;;;1.40;;
2884;SDS011;54691;48.262;11.586;2022-10-16T09:27:47;2.50;;;1.30;;
2884;SDS011;54691;48.262;11.586;2022-10-16T09:34:53;5.28;;;1.30;;
2884;SDS011;54691;48.262;11.586;2022-10-16T09:41:46;2.00;;;0.95;;
2884;SDS011;54691;48.262;11.586;2022-10-16T09:48:49;3.22;;;1.20;;
2884;SDS011;54691;48.262;11.586;2022-10-16T09:55:50;2.30;;;1.30;;
2884;SDS011;54691;48.262;11.586;2022-10-16T10:02:47;2.15;;;1.17;;
2884;SDS011;54691;48.262;11.586;2022-10-16T10:09:45;1.47;;;0.75;;
2884;SDS011;54691;48.262;11.586;2022-10-16T10:16:45;1.47;;;1.00;;
2884;SDS011;54691;48.262;11.586;2022-10-16T10:23:54;4.30;;;1.05;;
2884;SDS011;54691;48.262;11.586;2022-10-16T11:14:24;1.12;;;0.60;;
2884;SDS011;54691;48.262;11.586;2022-10-16T11:21:20;0.40;;;0.30;;
2884;SDS011;54691;48.262;11.586;2022-10-16T11:28:19;0.80;;;0.62;;
2884;SDS011;54691;48.262;11.586;2022-10-16T11:45:52;0.42;;;0.42;;
2884;SDS011;54691;48.262;11.586;2022-10-16T11:56:39;0.53;;;0.50;;
2884;SDS011;54691;48.262;11.586;2022-10-16T12:03:48;0.37;;;0.35;;
2884;SDS011;54691;48.262;11.586;2022-10-16T12:07:21;0.50;;;0.50;;
2884;SDS011;54691;48.262;11.586;2022-10-16T12:14:19;0.60;;;0.33;;
2884;SDS011;54691;48.262;11.586;2022-10-16T12:21:17;0.33;;;0.33;;
2884;SDS011;54691;48.262;11.586;2022-10-16T12:35:24;1.10;;;0.60;;
2884;SDS011;54691;48.262;11.586;2022-10-16T12:38:53;2.03;;;0.40;;
2884;SDS011;54691;48.262;11.586;2022-10-16T12:46:05;1.12;;;0.65;;
2884;SDS011;54691;48.262;11.586;2022-10-16T12:49:31;0.77;;;0.70;;
2884;SDS011;54691;48.262;11.586;2022-10-16T12:56:49;0.50;;;0.42;;
2884;SDS011;54691;48.262;11.586;2022-10-16T13:03:58;1.75;;;0.60;;
2884;SDS011;54691;48.262;11.586;2022-10-16T13:11:03;0.72;;;0.30;;
2884;SDS011;54691;48.262;11.586;2022-10-16T13:25:28;2.40;;;0.68;;
2884;SDS011;54691;48.262;11.586;2022-10-16T13:32:23;0.90;;;0.50;;
2884;SDS011;54691;48.262;11.586;2022-10-16T13:39:26;2.20;;;0.50;;
2884;SDS011;54691;48.262;11.586;2022-10-16T13:46:20;0.40;;;0.40;;
2884;SDS011;54691;48.262;11.586;2022-10-16T13:53:18;0.30;;;0.30;;
2884;SDS011;54691;48.262;11.586;2022-10-16T14:07:19;0.53;;;0.30;;
2884;SDS011;54691;48.262;11.586;2022-10-16T14:14:15;0.80;;;0.42;;
2884;SDS011;54691;48.262;11.586;2022-10-16T14:21:13;0.50;;;0.50;;
2884;SDS011;54691;48.262;11.586;2022-10-16T14:36:13;1.70;;;1.10;;
2884;SDS011;54691;48.262;11.586;2022-10-16T14:39:13;0.65;;;0.53;;
2884;SDS011;54691;48.262;11.586;2022-10-16T14:42:33;2.00;;;1.20;;
2884;SDS011;54691;48.262;11.586;2022-10-16T14:49:31;2.40;;;0.80;;
2884;SDS011;54691;48.262;11.586;2022-10-16T14:56:42;0.80;;;0.70;;
2884;SDS011;54691;48.262;11.586;2022-10-16T15:03:30;0.40;;;0.40;;
2884;SDS011;54691;48.262;11.586;2022-10-16T15:10:27;1.67;;;1.10;;
2884;SDS011;54691;48.262;11.586;2022-10-16T15:17:25;3.37;;;1.17;;
2884;SDS011;54691;48.262;11.586;2022-10-16T15:24:22;0.62;;;0.55;;
2884;SDS011;54691;48.262;11.586;2022-10-16T15:31:20;3.87;;;0.98;;
2884;SDS011;54691;48.262;11.586;2022-10-16T15:38:18;0.55;;;0.47;;
2884;SDS011;54691;48.262;11.586;2022-10-16T15:45:20;0.50;;;0.50;;
2884;SDS011;54691;48.262;11.586;2022-10-16T15:52:17;0.80;;;0.50;;
2884;SDS011;54691;48.262;11.586;2022-10-16T16:02:52;1.42;;;0.70;;
2884;SDS011;54691;48.262;11.586;2022-10-16T16:13:21;1.30;;;0.62;;
2884;SDS011;54691;48.262;11.586;2022-10-16T16:20:18;8.43;;;1.45;;
2884;SDS011;54691;48.262;11.586;2022-10-16T16:27:15;4.20;;;1.22;;
2884;SDS011;54691;48.262;11.586;2022-10-16T16:34:13;2.58;;;0.90;;
2884;SDS011;54691;48.262;11.586;2022-10-16T16:41:16;3.72;;;1.35;;
2884;SDS011;54691;48.262;11.586;2022-10-16T16:44:47;2.00;;;1.30;;
2884;SDS011;54691;48.262;11.586;2022-10-16T16:51:45;3.67;;;1.92;;
2884;SDS011;54691;48.262;11.586;2022-10-16T16:58:44;6.47;;;1.50;;
2884;SDS011;54691;48.262;11.586;2022-10-16T17:05:40;3.08;;;1.15;;
2884;SDS011;54691;48.262;11.586;2022-10-16T17:12:39;8.08;;;0.95;;
2884;SDS011;54691;48.262;11.586;2022-10-16T17:19:36;13.10;;;1.42;;
2884;SDS011;54691;48.262;11.586;2022-10-16T17:26:33;1.95;;;1.00;;
2884;SDS011;54691;48.262;11.586;2022-10-16T17:33:32;2.15;;;1.20;;
2884;SDS011;54691;48.262;11.586;2022-10-16T17:40:30;8.93;;;1.35;;
2884;SDS011;54691;48.262;11.586;2022-10-16T17:47:30;10.55;;;1.10;;
2884;SDS011;54691;48.262;11.586;2022-10-16T17:54:27;2.08;;;1.07;;
2884;SDS011;54691;48.262;11.586;2022-10-16T18:01:31;5.08;;;1.32;;
2884;SDS011;54691;48.262;11.586;2022-10-16T18:08:30;5.33;;;1.35;;
2884;SDS011;54691;48.262;11.586;2022-10-16T18:15:26;1.92;;;0.70;;
2884;SDS011;54691;48.262;11.586;2022-10-16T18:26:03;9.43;;;0.93;;
2884;SDS011;54691;48.262;11.586;2022-10-16T18:33:00;4.55;;;1.30;;
2884;SDS011;54691;48.262;11.586;2022-10-16T18:40:01;5.40;;;1.55;;
2884;SDS011;54691;48.262;11.586;2022-10-16T18:46:59;2.08;;;1.10;;
2884;SDS011;54691;48.262;11.586;2022-10-16T18:54:00;5.87;;;1.87;;
2884;SDS011;54691;48.262;11.586;2022-10-16T19:04:32;2.95;;;1.47;;
2884;SDS011;54691;48.262;11.586;2022-10-16T19:11:32;9.60;;;2.08;;
2884;SDS011;54691;48.262;11.586;2022-10-16T19:22:06;11.35;;;2.35;;
2884;SDS011;54691;48.262;11.586;2022-10-16T19:32:52;6.80;;;1.90;;
2884;SDS011;54691;48.262;11.586;2022-10-16T19:43:43;8.30;;;1.65;;
2884;SDS011;54691;48.262;11.586;2022-10-16T19:54:05;5.50;;;1.90;;
2884;SDS011;54691;48.262;11.586;2022-10-16T20:04:44;7.33;;;2.05;;
2884;SDS011;54691;48.262;11.586;2022-10-16T20:08:15;7.20;;;2.00;;
2884;SDS011;54691;48.262;11.586;2022-10-16T20:19:04;7.15;;;2.00;;
2884;SDS011;54691;48.262;11.586;2022-10-16T20:26:06;4.03;;;1.60;;
2884;SDS011;54691;48.262;11.586;2022-10-16T20:36:35;2.65;;;1.82;;
2884;SDS011;54691;48.262;11.586;2022-10-16T20:43:34;7.03;;;1.55;;
2884;SDS011;54691;48.262;11.586;2022-10-16T20:50:31;7.55;;;1.72;;
2884;SDS011;54691;48.262;11.586;2022-10-16T20:57:28;9.80;;;2.27;;
2884;SDS011;54691;48.262;11.586;2022-10-16T21:04:25;8.85;;;1.65;;
2884;SDS011;54691;48.262;11.586;2022-10-16T21:11:23;5.22;;;1.50;;
2884;SDS011;54691;48.262;11.586;2022-10-16T21:18:20;7.03;;;1.70;;
2884;SDS011;54691;48.262;11.586;2022-10-16T21:25:17;7.92;;;2.42;;
2884;SDS011;54691;48.262;11.586;2022-10-16T21:32:18;5.10;;;2.65;;
2884;SDS011;54691;48.262;11.586;2022-10-16T21:39:21;3.08;;;1.87;;
2884;SDS011;54691;48.262;11.586;2022-10-16T21:46:18;4.25;;;2.25;;
2884;SDS011;54691;48.262;11.586;2022-10-16T22:11:15;8.30;;;2.20;;
2884;SDS011;54691;48.262;11.586;2022-10-16T22:14:48;8.00;;;2.40;;
2884;SDS011;54691;48.262;11.586;2022-10-16T22:32:22;6.25;;;2.60;;
2884;SDS011;54691;48.262;11.586;2022-10-16T22:46:31;6.03;;;1.87;;
2884;SDS011;54691;48.262;11.586;2022-10-16T22:53:33;3.72;;;1.80;;
2884;SDS011;54691;48.262;11.586;2022-10-16T23:00:30;4.78;;;1.77;;
2884;SDS011;54691;48.262;11.586;2022-10-16T23:07:28;3.55;;;2.05;;
2884;SDS011;54691;48.262;11.586;2022-10-16T23:14:27;9.40;;;2.35;;
2884;SDS011;54691;48.262;11.586;2022-10-16T23:24:59;8.80;;;2.17;;
2884;SDS011;54691;48.262;11.586;2022-10-16T23:31:58;6.08;;;2.62;;
2884;SDS011;54691;48.262;11.586;2022-10-16T23:50:01;12.90;;;3.52;;
2884;SDS011;54691;48.262;11.586;2022-10-16T23:56:58;11.20;;;3.80;;
